Aérodrome :
LOGIN :

S'inscrire | Disclaimer

   EN    FR    IT 

 










Légende :    VFR   VFR Marginal   IFR   IFR Intensif   IFR Très Intensif
Visi : 
Plafond : 
>= 8 km
>= 3000ft
5 à 8 km
1000 à 3000 ft
1500m à 5 km
500 à 1000 ft
800 à 1500m
200 à 500 ft
< 800m
< 200 ft
Symboles :   Orages  Brouillard  Fortes neiges  Fortes précipitations  Vent > 20 kt
SIGMETs :   Divers  Orages  Givrage  Turbulence  Onde Orograph.  Cendres Volcan.







- Altitude de l'aérodrome : 1906 ft
- Code IATA : INN


LOWI - Innsbruck

DERNIER METAR :
  • 152050Z 26005KT 220V280 9999 FEW070 11/05 Q1018 NOSIG

METARs EXPIRÉS :
  • 152020Z VRB02KT 9999 FEW070 12/05 Q1018 BECMG 27007KT
  • 151950Z VRB04KT 9999 FEW070 16/05 Q1018 BECMG 27007KT
  • 151920Z VRB04KT 9999 FEW070 18/05 Q1018 BECMG 27007KT
  • 151850Z 12007G17KT 050V220 9999 FEW070 18/05 Q1017 BECMG FM2000 27007KT
  • 151820Z 12008KT 070V210 9999 FEW070 18/05 Q1017 NOSIG
  • 151750Z 11012KT 080V180 9999 FEW070 18/05 Q1017 NOSIG

TAF TAF LOWI
Valide du 15 à 18h jusqu'au 16 à 18h UTC


151715Z 1518/1618 10010G20KT 9999 FEW070 TX21/1614Z TN06/1606Z
BECMG 1519/1521 27007KT
BECMG 1609/1611 10007KT
TEMPO 1610/1616 12010G20KT
Pas de NOTAMs connus pour ce terrain.



MET'MAP, la Météo Aéronautique d'un coup d'oeil ! - Copyright ORBIFLY Décembre 2007 - Disclaimer

ORBIFLY MET'MAP TEAM :

Programmation & Développement : Alexandra Zaïnal
Conception & Développement : Baudouin d'Aumeries
Co-Programmation & Développement : Marc-Olivier Méhu
Soutien technique & logistique : Manuel Goepfert

Contact : metmap@orbifly.com




SOURCES & CREDITS :

   NOAA